Terminal Aerodrome Forecast
Issued by NWS Des Moines, IA

Home | Current Version | Previous Version | Text Only | Print | Product List | Glossary On
Versions: 1 2 3 4 5 6 7 8 9 10 11 12 13 14 15 16 17 18 19 20 21
000
FTUS43 KDMX 232112 AAC
TAFALO
TAF AMD
KALO 232112Z 2321/2418 VRB06KT P6SM SCT007
      TEMPO 2321/2323 BKN008
     FM240000 19003KT P6SM SKC
     FM240600 18002KT 3SM BR SCT003
     FM240900 16002KT 1SM BR BKN002
     FM241500 16010KT P6SM SCT002=

USA.gov is the U.S. government's official web portal to all federal, state and local government web resources and services.